createdAt,value
2022-12-09T00:01:50.839Z,22.83
2022-12-09T00:04:16.916Z,23.13
2022-12-09T00:06:42.767Z,24.20
2022-12-09T00:09:14.159Z,23.55
2022-12-09T00:11:40.848Z,26.63
2022-12-09T00:14:06.954Z,27.48
2022-12-09T00:16:32.845Z,24.70
2022-12-09T00:18:59.104Z,24.90
2022-12-09T00:21:28.784Z,28.88
2022-12-09T00:23:56.621Z,26.85
2022-12-09T00:26:24.479Z,28.20
2022-12-09T00:28:50.905Z,31.10
2022-12-09T00:31:25.436Z,27.58
2022-12-09T00:33:52.294Z,23.42
2022-12-09T00:36:20.121Z,26.67
2022-12-09T00:38:46.975Z,31.10
2022-12-09T00:41:14.236Z,33.53
2022-12-09T00:43:41.763Z,32.33
2022-12-09T00:46:08.268Z,32.42
2022-12-09T00:48:34.237Z,33.00
2022-12-09T00:51:01.160Z,31.65
2022-12-09T00:53:27.624Z,34.53
2022-12-09T00:55:53.696Z,32.45
2022-12-09T00:58:19.556Z,35.15
2022-12-09T01:00:45.617Z,31.92
2022-12-09T01:03:16.816Z,37.60
2022-12-09T01:05:43.446Z,34.83
2022-12-09T01:08:11.173Z,39.83
2022-12-09T01:10:38.859Z,36.95
2022-12-09T01:13:05.053Z,34.70
2022-12-09T01:15:31.003Z,37.20
2022-12-09T01:17:57.702Z,39.60
2022-12-09T01:20:23.745Z,36.88
2022-12-09T01:22:49.838Z,35.28
2022-12-09T01:25:15.743Z,34.00
2022-12-09T01:27:41.892Z,32.80
2022-12-09T01:30:10.951Z,35.80
2022-12-09T01:32:37.194Z,36.78
2022-12-09T01:35:04.057Z,29.63
2022-12-09T01:37:34.146Z,35.35
2022-12-09T01:40:00.157Z,30.98
2022-12-09T01:42:26.422Z,33.20
2022-12-09T01:45:20.199Z,29.10
2022-12-09T01:47:48.539Z,30.00
2022-12-09T01:50:16.168Z,30.88
2022-12-09T01:52:42.782Z,33.72
2022-12-09T01:55:09.146Z,37.90
2022-12-09T01:57:36.260Z,36.42
2022-12-09T02:00:04.375Z,34.45
2022-12-09T02:02:32.168Z,32.33
2022-12-09T02:04:58.805Z,31.38
2022-12-09T02:07:26.306Z,31.42
2022-12-09T02:09:52.570Z,34.33
2022-12-09T02:12:32.526Z,32.20
2022-12-09T02:15:34.489Z,35.53
2022-12-09T02:18:03.156Z,34.88
2022-12-09T02:20:34.373Z,27.77
2022-12-09T02:23:00.180Z,31.52
2022-12-09T02:25:32.757Z,28.00
2022-12-09T02:28:29.559Z,31.27
2022-12-09T02:31:10.280Z,28.98
2022-12-09T02:34:09.863Z,35.10
2022-12-09T02:37:01.134Z,37.22
2022-12-09T02:39:51.687Z,33.90
2022-12-09T02:42:21.639Z,34.03
2022-12-09T02:44:50.084Z,29.38
2022-12-09T02:47:20.474Z,30.80
2022-12-09T02:49:50.761Z,33.20
2022-12-09T02:52:18.910Z,30.85
2022-12-09T02:54:46.079Z,30.90
2022-12-09T02:57:25.429Z,31.48
2022-12-09T02:59:51.304Z,28.58
2022-12-09T03:02:31.169Z,29.50
2022-12-09T03:05:26.601Z,29.30
2022-12-09T03:07:58.497Z,33.53
2022-12-09T03:10:34.544Z,29.77
2022-12-09T03:13:13.403Z,27.98
2022-12-09T03:15:46.033Z,30.10
2022-12-09T03:18:16.350Z,29.63
2022-12-09T03:20:45.291Z,26.88
2022-12-09T03:23:14.951Z,31.52
2022-12-09T03:25:47.992Z,28.48
2022-12-09T03:28:23.766Z,30.90
2022-12-09T03:30:53.209Z,29.90
2022-12-09T03:33:22.253Z,29.02
2022-12-09T03:35:56.009Z,28.75
2022-12-09T03:38:25.422Z,30.75
2022-12-09T03:41:00.212Z,28.40
2022-12-09T03:43:33.515Z,29.20
2022-12-09T03:46:00.133Z,26.80
2022-12-09T03:48:26.805Z,30.90
2022-12-09T03:50:59.016Z,25.83
2022-12-09T03:53:55.829Z,24.85
2022-12-09T03:56:33.199Z,28.25
2022-12-09T03:59:10.010Z,29.77
2022-12-09T04:01:36.321Z,22.98
2022-12-09T04:04:02.497Z,32.30
2022-12-09T04:06:28.360Z,27.70
2022-12-09T04:08:58.095Z,27.52
2022-12-09T04:11:27.889Z,23.27
2022-12-09T04:13:53.992Z,25.95
2022-12-09T04:16:20.178Z,25.30
2022-12-09T04:18:46.628Z,26.15
2022-12-09T04:21:13.323Z,24.67
2022-12-09T04:23:43.178Z,25.75
2022-12-09T04:26:16.355Z,26.30
2022-12-09T04:28:42.613Z,29.58
2022-12-09T04:31:13.083Z,30.35
2022-12-09T04:33:39.704Z,24.58
2022-12-09T04:36:08.045Z,25.13
2022-12-09T04:38:33.925Z,23.38
2022-12-09T04:41:00.392Z,21.95
2022-12-09T04:43:26.915Z,29.67
2022-12-09T04:45:52.885Z,27.02
2022-12-09T04:48:19.134Z,31.38
2022-12-09T04:50:45.449Z,28.05
2022-12-09T04:53:11.275Z,28.52
2022-12-09T04:55:37.172Z,29.27
2022-12-09T04:58:03.217Z,25.75
2022-12-09T05:00:29.101Z,29.50
2022-12-09T05:02:55.438Z,28.13
2022-12-09T05:05:21.444Z,24.38
2022-12-09T05:07:47.604Z,22.98
2022-12-09T05:10:14.480Z,25.75
2022-12-09T05:12:41.017Z,22.52
2022-12-09T05:15:07.792Z,23.92
2022-12-09T05:17:33.893Z,22.83
2022-12-09T05:19:59.764Z,19.40
2022-12-09T05:22:26.054Z,23.48
2022-12-09T05:24:52.034Z,24.63
2022-12-09T05:27:17.959Z,19.55
2022-12-09T05:29:44.316Z,20.33
2022-12-09T05:32:10.504Z,24.27
2022-12-09T05:34:36.661Z,25.67
2022-12-09T05:37:02.508Z,22.98
2022-12-09T05:39:28.611Z,24.90
2022-12-09T05:41:54.953Z,21.77
2022-12-09T05:44:21.038Z,22.55
2022-12-09T05:46:47.139Z,24.40
2022-12-09T05:49:13.597Z,23.60
2022-12-09T05:51:39.746Z,20.35
2022-12-09T05:54:06.405Z,21.23
2022-12-09T05:56:32.823Z,18.95
2022-12-09T05:58:59.517Z,23.25
2022-12-09T06:01:26.529Z,22.13
2022-12-09T06:03:54.193Z,21.55
2022-12-09T06:06:23.000Z,20.50
2022-12-09T06:08:49.402Z,24.75
2022-12-09T06:11:18.447Z,20.58
2022-12-09T06:13:45.934Z,25.13
2022-12-09T06:16:13.853Z,29.05
2022-12-09T06:18:40.214Z,22.80
2022-12-09T06:21:08.231Z,22.73
2022-12-09T06:23:35.426Z,24.50
2022-12-09T06:26:02.260Z,24.20
2022-12-09T06:28:28.475Z,21.73
2022-12-09T06:30:54.524Z,26.15
2022-12-09T06:33:52.517Z,29.42
2022-12-09T06:36:07.309Z,26.27
2022-12-09T06:38:34.049Z,26.58
2022-12-09T06:41:00.031Z,23.77
2022-12-09T06:43:26.026Z,23.83
2022-12-09T06:45:51.949Z,21.27
2022-12-09T06:48:18.055Z,19.08
2022-12-09T06:50:44.056Z,21.13
2022-12-09T06:53:10.179Z,25.25
2022-12-09T06:55:36.168Z,26.52
2022-12-09T06:58:02.369Z,21.10
2022-12-09T07:00:28.448Z,20.73
2022-12-09T07:02:54.518Z,20.75
2022-12-09T07:05:20.769Z,19.70
2022-12-09T07:07:52.115Z,19.65
2022-12-09T07:10:19.196Z,24.02
2022-12-09T07:12:45.314Z,20.40
2022-12-09T07:15:12.018Z,22.27
2022-12-09T07:17:38.477Z,21.27
2022-12-09T07:20:07.293Z,18.77
2022-12-09T07:22:34.329Z,21.90
2022-12-09T07:25:00.361Z,22.45
2022-12-09T07:27:26.836Z,26.52
2022-12-09T07:29:52.939Z,24.77
2022-12-09T07:32:19.245Z,23.75
2022-12-09T07:34:45.665Z,27.75
2022-12-09T07:37:12.730Z,23.60
2022-12-09T07:39:38.839Z,25.52
2022-12-09T07:42:05.208Z,23.40
2022-12-09T07:44:31.738Z,22.15
2022-12-09T07:46:57.838Z,24.10
2022-12-09T07:49:24.901Z,26.35
2022-12-09T07:51:51.510Z,28.48
2022-12-09T07:54:19.099Z,24.30
2022-12-09T07:56:45.687Z,23.77
2022-12-09T07:59:13.127Z,26.65
2022-12-09T08:01:39.445Z,25.13
2022-12-09T08:04:06.263Z,24.48
2022-12-09T08:06:33.411Z,21.65
2022-12-09T08:09:03.110Z,24.92
2022-12-09T08:11:31.868Z,22.55
2022-12-09T08:14:00.077Z,24.45
2022-12-09T08:16:27.904Z,22.85
2022-12-09T08:18:55.521Z,21.05
2022-12-09T08:21:27.987Z,24.80
2022-12-09T08:24:00.506Z,26.35
2022-12-09T08:26:29.569Z,27.02
2022-12-09T08:28:56.359Z,25.02
2022-12-09T08:31:24.750Z,26.80
2022-12-09T08:33:52.555Z,26.20
2022-12-09T08:36:24.848Z,23.40
2022-12-09T08:38:51.778Z,25.08
2022-12-09T08:41:40.052Z,25.85
2022-12-09T08:44:20.277Z,24.45
2022-12-09T08:46:49.389Z,27.25
2022-12-09T08:49:21.178Z,22.55
2022-12-09T08:51:49.367Z,22.15
2022-12-09T08:54:15.381Z,22.23
2022-12-09T08:56:46.268Z,20.92
2022-12-09T08:59:13.115Z,21.17
2022-12-09T09:01:39.120Z,19.80
2022-12-09T09:04:09.572Z,23.45
2022-12-09T09:06:38.449Z,19.50
2022-12-09T09:09:07.798Z,18.42
2022-12-09T09:11:34.409Z,19.63
2022-12-09T09:14:02.929Z,20.63
2022-12-09T09:16:29.051Z,19.13
2022-12-09T09:18:55.535Z,18.73
2022-12-09T09:21:24.160Z,17.73
2022-12-09T09:23:50.376Z,16.48
2022-12-09T09:26:23.823Z,17.38
2022-12-09T09:28:50.222Z,15.35
2022-12-09T09:31:19.403Z,17.23
2022-12-09T09:33:46.335Z,15.05
2022-12-09T09:36:15.756Z,16.92
2022-12-09T09:38:42.482Z,14.85
2022-12-09T09:41:33.273Z,17.52
2022-12-09T09:44:00.016Z,19.08
2022-12-09T09:46:38.879Z,17.70
2022-12-09T09:49:18.119Z,13.55
2022-12-09T09:51:44.707Z,19.00
2022-12-09T09:54:13.260Z,15.25
2022-12-09T09:56:53.813Z,18.02
2022-12-09T09:59:31.984Z,17.25
2022-12-09T10:02:15.093Z,15.43
2022-12-09T10:05:09.162Z,13.85
2022-12-09T10:07:42.221Z,11.38
2022-12-09T10:10:45.506Z,10.57
2022-12-09T10:13:18.784Z,9.98
2022-12-09T10:16:13.332Z,13.65
2022-12-09T10:18:49.890Z,12.50
2022-12-09T10:21:18.754Z,11.30
2022-12-09T10:23:45.854Z,8.93
2022-12-09T10:26:21.097Z,8.38
2022-12-09T10:31:15.909Z,8.98
2022-12-09T10:33:42.115Z,9.68
2022-12-09T10:36:24.582Z,8.65
2022-12-09T10:38:52.423Z,8.25
2022-12-09T10:41:38.251Z,5.57
2022-12-09T10:44:33.465Z,6.82
2022-12-09T10:47:04.224Z,6.35
2022-12-09T10:49:32.363Z,6.15
2022-12-09T10:51:59.424Z,7.05
2022-12-09T10:54:50.239Z,6.50
2022-12-09T10:57:16.401Z,5.22
2022-12-09T10:59:58.698Z,5.30
2022-12-09T11:02:25.781Z,5.07
2022-12-09T11:04:52.648Z,4.30
2022-12-09T11:07:24.182Z,7.32
2022-12-09T11:09:53.637Z,4.57
2022-12-09T11:12:31.968Z,4.45
2022-12-09T11:15:24.860Z,5.57
2022-12-09T11:18:06.300Z,5.50
2022-12-09T11:20:34.639Z,4.35
2022-12-09T11:23:13.405Z,4.57
2022-12-09T11:25:54.697Z,4.97
2022-12-09T11:28:31.144Z,4.30
2022-12-09T11:31:35.257Z,3.92
2022-12-09T11:34:15.416Z,6.15
2022-12-09T11:36:47.570Z,5.55
2022-12-09T11:39:25.056Z,7.05
2022-12-09T11:42:17.046Z,6.82
2022-12-09T11:44:57.547Z,4.78
2022-12-09T11:47:50.408Z,5.78
2022-12-09T11:50:30.469Z,7.63
2022-12-09T11:53:11.554Z,7.78
2022-12-09T11:55:43.645Z,9.15
2022-12-09T11:58:21.771Z,7.60
2022-12-09T12:01:25.255Z,11.90
2022-12-09T12:03:54.258Z,8.20
2022-12-09T12:06:26.110Z,7.50
2022-12-09T12:09:00.721Z,6.93
2022-12-09T12:11:33.814Z,6.32
2022-12-09T12:14:05.786Z,7.63
2022-12-09T12:17:00.551Z,6.97
2022-12-09T12:22:05.319Z,6.57
2022-12-09T12:24:33.890Z,5.68
2022-12-09T12:27:14.993Z,8.15
2022-12-09T12:29:51.610Z,5.78
2022-12-09T12:32:37.128Z,5.03
2022-12-09T12:35:33.810Z,5.75
2022-12-09T12:38:34.420Z,5.28
2022-12-09T12:41:05.995Z,5.97
2022-12-09T12:44:12.800Z,6.30
2022-12-09T12:46:51.362Z,14.68
2022-12-09T12:49:27.311Z,14.38
2022-12-09T12:52:21.005Z,11.02
2022-12-09T12:55:04.309Z,15.70
2022-12-09T12:57:46.496Z,15.93
2022-12-09T13:00:18.289Z,11.98
2022-12-09T13:03:00.866Z,12.85
2022-12-09T13:05:35.516Z,24.02
2022-12-09T13:08:21.855Z,17.33
2022-12-09T13:10:53.134Z,17.48
2022-12-09T13:13:32.782Z,16.48
2022-12-09T13:16:06.245Z,12.20
2022-12-09T13:18:38.150Z,23.00
2022-12-09T13:21:06.561Z,20.52
2022-12-09T13:23:59.619Z,25.95
2022-12-09T13:26:37.268Z,27.77
2022-12-09T13:29:21.306Z,31.02
2022-12-09T13:32:02.319Z,24.48
2022-12-09T13:34:37.564Z,21.00
2022-12-09T13:37:04.950Z,20.08
2022-12-09T13:39:39.879Z,22.30
2022-12-09T13:42:46.739Z,24.63
2022-12-09T13:45:27.828Z,20.65
2022-12-09T13:47:56.021Z,23.17
2022-12-09T13:50:34.552Z,22.70
2022-12-09T13:53:19.975Z,22.25
2022-12-09T13:56:04.107Z,23.08
2022-12-09T13:58:41.937Z,24.65
2022-12-09T14:01:10.440Z,26.40
2022-12-09T14:03:57.503Z,23.25
2022-12-09T14:06:29.939Z,24.80
2022-12-09T14:09:02.687Z,30.52
2022-12-09T14:11:37.412Z,24.45
2022-12-09T14:14:22.219Z,24.50
2022-12-09T14:16:48.759Z,21.08
2022-12-09T14:19:23.412Z,19.77
2022-12-09T14:22:20.424Z,25.07
2022-12-09T14:24:48.789Z,28.10
2022-12-09T14:27:20.099Z,24.70
2022-12-09T14:29:53.747Z,17.63
2022-12-09T14:32:25.424Z,20.45
2022-12-09T14:35:03.179Z,17.50
2022-12-09T14:38:01.471Z,19.50
2022-12-09T14:40:44.995Z,17.80
2022-12-09T14:43:33.573Z,17.60
2022-12-09T14:46:05.936Z,19.63
2022-12-09T14:48:35.307Z,20.70
2022-12-09T14:51:18.005Z,20.33
2022-12-09T14:53:50.149Z,15.93
2022-12-09T14:56:18.756Z,23.88
2022-12-09T14:58:49.654Z,19.45
2022-12-09T15:01:17.401Z,17.92
2022-12-09T15:03:57.906Z,19.33
2022-12-09T15:06:28.001Z,18.17
2022-12-09T15:08:56.601Z,22.48
2022-12-09T15:11:30.757Z,21.05
2022-12-09T15:14:19.833Z,28.55
2022-12-09T15:16:49.289Z,30.95
2022-12-09T15:19:51.024Z,26.30
2022-12-09T15:22:16.166Z,27.15
2022-12-09T15:24:50.223Z,27.90
2022-12-09T15:27:19.430Z,28.88
2022-12-09T15:29:45.430Z,27.90
2022-12-09T15:32:27.630Z,29.48
2022-12-09T15:34:53.790Z,28.77
2022-12-09T15:37:25.588Z,27.42
2022-12-09T15:39:57.535Z,30.83
2022-12-09T15:42:26.510Z,25.05
2022-12-09T15:45:10.304Z,30.30
2022-12-09T15:47:38.292Z,28.05
2022-12-09T15:50:22.533Z,25.52
2022-12-09T15:52:51.775Z,27.20
2022-12-09T15:56:06.857Z,28.77
2022-12-09T15:58:39.207Z,30.80
2022-12-09T16:01:05.351Z,27.15
2022-12-09T16:03:33.289Z,30.83
2022-12-09T16:06:02.877Z,31.15
2022-12-09T16:08:38.795Z,30.88
2022-12-09T16:11:05.251Z,29.13
2022-12-09T16:13:31.843Z,34.60
2022-12-09T16:16:00.105Z,29.58
2022-12-09T16:18:25.940Z,32.25
2022-12-09T16:21:09.824Z,34.40
2022-12-09T16:23:35.926Z,34.13
2022-12-09T16:26:07.028Z,31.05
2022-12-09T16:28:34.476Z,33.25
2022-12-09T16:31:03.448Z,33.28
2022-12-09T16:33:37.272Z,34.65
2022-12-09T16:36:06.012Z,36.15
2022-12-09T16:38:36.440Z,33.47
2022-12-09T16:41:08.185Z,33.08
2022-12-09T16:43:34.816Z,32.30
2022-12-09T16:46:12.636Z,32.95
2022-12-09T16:48:38.589Z,36.28
2022-12-09T16:51:16.949Z,37.17
2022-12-09T16:53:49.185Z,37.53
2022-12-09T16:56:24.257Z,38.58
2022-12-09T16:58:51.024Z,33.50
2022-12-09T17:01:19.091Z,33.47
2022-12-09T17:03:52.972Z,35.47
2022-12-09T17:06:19.952Z,38.92
2022-12-09T17:08:46.159Z,36.92
2022-12-09T17:11:13.947Z,35.22
2022-12-09T17:13:40.105Z,35.90
2022-12-09T17:16:06.815Z,35.65
2022-12-09T17:18:33.061Z,32.50
2022-12-09T17:21:06.527Z,33.97
2022-12-09T17:23:39.185Z,30.05
2022-12-09T17:26:11.266Z,34.17
2022-12-09T17:28:37.569Z,33.15
2022-12-09T17:31:12.180Z,36.55
2022-12-09T17:33:38.529Z,36.13
2022-12-09T17:36:05.418Z,34.47
2022-12-09T17:38:31.373Z,34.45
2022-12-09T17:41:02.837Z,32.40
2022-12-09T17:43:28.828Z,38.80
2022-12-09T17:45:59.130Z,37.72
2022-12-09T17:48:25.198Z,39.10
2022-12-09T17:50:51.046Z,35.55
2022-12-09T17:53:16.927Z,37.38
2022-12-09T17:55:42.889Z,36.72
2022-12-09T17:58:08.707Z,40.25
2022-12-09T18:00:34.895Z,36.40
2022-12-09T18:03:00.921Z,41.72
2022-12-09T18:05:26.875Z,45.20
2022-12-09T18:07:52.813Z,40.92
2022-12-09T18:10:18.674Z,42.92
2022-12-09T18:12:44.505Z,38.08
2022-12-09T18:15:10.662Z,42.22
2022-12-09T18:17:36.503Z,44.47
2022-12-09T18:20:03.283Z,42.42
2022-12-09T18:22:29.168Z,41.80
2022-12-09T18:24:54.994Z,44.30
2022-12-09T18:27:20.875Z,38.88
2022-12-09T18:29:46.727Z,37.47
2022-12-09T18:32:12.674Z,41.30
2022-12-09T18:34:38.673Z,38.00
2022-12-09T18:37:04.574Z,41.38
2022-12-09T18:39:30.471Z,41.17
2022-12-09T18:41:56.312Z,42.92
2022-12-09T18:44:22.354Z,46.83
2022-12-09T18:46:49.628Z,48.50
2022-12-09T18:49:18.952Z,41.95
2022-12-09T18:51:46.464Z,40.67
2022-12-09T18:54:24.032Z,39.78
2022-12-09T18:56:51.240Z,39.80
2022-12-09T18:59:19.977Z,39.42
2022-12-09T19:01:47.196Z,41.28
2022-12-09T19:04:18.865Z,43.90
2022-12-09T19:06:47.073Z,47.17
2022-12-09T19:09:19.679Z,42.25
2022-12-09T19:11:48.104Z,42.78
2022-12-09T19:14:15.623Z,49.63
2022-12-09T19:16:42.324Z,45.08
2022-12-09T19:19:11.633Z,45.22
2022-12-09T19:21:38.464Z,42.63
2022-12-09T19:24:04.808Z,42.60
2022-12-09T19:26:32.603Z,42.78
2022-12-09T19:29:00.891Z,45.50
2022-12-09T19:31:29.505Z,52.25
2022-12-09T19:33:57.894Z,48.08
2022-12-09T19:36:25.595Z,40.30
2022-12-09T19:38:52.013Z,37.75
2022-12-09T19:41:18.628Z,39.78
2022-12-09T19:43:44.961Z,35.15
2022-12-09T19:46:12.631Z,56.88
2022-12-09T19:48:41.351Z,67.07
2022-12-09T19:51:09.996Z,71.25
2022-12-09T19:53:37.202Z,72.35
2022-12-09T19:56:06.414Z,81.68
2022-12-09T19:58:35.795Z,69.95
2022-12-09T20:01:19.397Z,63.28
2022-12-09T20:03:47.912Z,59.78
2022-12-09T20:06:17.835Z,64.25
2022-12-09T20:08:44.604Z,69.75
2022-12-09T20:11:14.716Z,76.65
2022-12-09T20:13:41.004Z,71.45
2022-12-09T20:16:09.189Z,76.28
2022-12-09T20:18:35.839Z,69.15
2022-12-09T20:21:03.813Z,67.95
2022-12-09T20:23:29.966Z,70.60
2022-12-09T20:26:16.866Z,59.38
2022-12-09T20:28:44.275Z,65.47
2022-12-09T20:31:13.687Z,60.40
2022-12-09T20:33:39.987Z,53.22
2022-12-09T20:36:07.933Z,45.35
2022-12-09T20:38:34.542Z,43.45
2022-12-09T20:41:05.387Z,59.55
2022-12-09T20:43:38.549Z,67.80
2022-12-09T20:46:13.073Z,70.85
2022-12-09T20:48:39.705Z,68.97
2022-12-09T20:51:16.204Z,67.28
2022-12-09T20:53:43.478Z,69.47
2022-12-09T20:56:10.122Z,61.17
2022-12-09T20:58:37.187Z,56.42
2022-12-09T21:01:07.706Z,58.05
2022-12-09T21:03:34.580Z,66.75
2022-12-09T21:06:00.789Z,82.10
2022-12-09T21:08:31.243Z,80.78
2022-12-09T21:11:14.454Z,69.05
2022-12-09T21:13:43.799Z,61.28
2022-12-09T21:16:15.976Z,67.38
2022-12-09T21:18:43.044Z,76.07
2022-12-09T21:21:09.201Z,66.22
2022-12-09T21:23:36.186Z,64.38
2022-12-09T21:26:04.707Z,89.05
2022-12-09T21:28:30.632Z,70.43
2022-12-09T21:30:56.708Z,65.75
2022-12-09T21:33:22.914Z,73.13
2022-12-09T21:35:48.803Z,85.68
2022-12-09T21:38:14.646Z,75.90
2022-12-09T21:40:40.504Z,67.82
2022-12-09T21:43:06.707Z,65.97
2022-12-09T21:45:34.145Z,75.05
2022-12-09T21:48:00.033Z,66.82
2022-12-09T21:50:25.878Z,50.03
2022-12-09T21:52:51.745Z,65.28
2022-12-09T21:55:17.597Z,84.78
2022-12-09T21:57:43.472Z,72.15
2022-12-09T22:00:10.427Z,87.90
2022-12-09T22:02:37.434Z,56.53
2022-12-09T22:05:03.695Z,61.83
2022-12-09T22:07:29.644Z,64.97
2022-12-09T22:09:55.420Z,96.20
2022-12-09T22:12:21.309Z,118.40
2022-12-09T22:14:47.211Z,76.75
2022-12-09T22:17:13.096Z,91.13
2022-12-09T22:19:39.009Z,89.03
2022-12-09T22:22:09.037Z,107.15
2022-12-09T22:24:35.295Z,80.40
2022-12-09T22:27:01.419Z,92.20
2022-12-09T22:29:27.284Z,138.20
2022-12-09T22:31:53.172Z,69.50
2022-12-09T22:34:19.881Z,93.93
2022-12-09T22:36:47.436Z,177.07
2022-12-09T22:39:15.406Z,83.57
2022-12-09T22:41:42.941Z,64.10
2022-12-09T22:44:12.262Z,65.15
2022-12-09T22:46:38.651Z,45.33
2022-12-09T22:49:05.878Z,54.80
2022-12-09T22:51:34.579Z,54.90
2022-12-09T22:54:02.535Z,40.47
2022-12-09T22:56:28.397Z,70.88
2022-12-09T22:58:54.746Z,41.50
2022-12-09T23:01:24.486Z,55.42
2022-12-09T23:03:50.720Z,52.05
2022-12-09T23:06:17.053Z,107.57
2022-12-09T23:08:44.118Z,45.25
2022-12-09T23:11:13.398Z,44.92
2022-12-09T23:13:41.423Z,46.13
2022-12-09T23:16:11.681Z,50.38
2022-12-09T23:18:37.613Z,43.13
2022-12-09T23:21:04.949Z,45.63
2022-12-09T23:23:31.168Z,46.88
2022-12-09T23:26:08.878Z,41.55
2022-12-09T23:28:39.101Z,57.38
2022-12-09T23:31:08.184Z,125.40
2022-12-09T23:33:34.594Z,75.25
2022-12-09T23:36:30.192Z,83.28
2022-12-09T23:38:56.724Z,44.60
2022-12-09T23:41:24.256Z,43.63
2022-12-09T23:43:51.069Z,46.08
2022-12-09T23:46:20.025Z,50.72
2022-12-09T23:48:47.630Z,43.13
2022-12-09T23:51:17.052Z,40.20
2022-12-09T23:53:44.462Z,65.13
2022-12-09T23:56:12.456Z,53.13
2022-12-09T23:58:39.088Z,81.72
